sensor_id;sensor_type;location;lat;lon;timestamp;pressure;altitude;pressure_sealevel;temperature;humidity
62800;BME280;48842;51.046;13.796;2023-08-12T00:01:45;100734.66;;;22.25;53.49
62800;BME280;48842;51.046;13.796;2023-08-12T00:04:10;100742.78;;;22.22;53.89
62800;BME280;48842;51.046;13.796;2023-08-12T00:06:39;100737.44;;;22.22;54.04
62800;BME280;48842;51.046;13.796;2023-08-12T00:09:05;100749.03;;;22.21;53.84
62800;BME280;48842;51.046;13.796;2023-08-12T00:11:30;100741.28;;;22.14;53.96
62800;BME280;48842;51.046;13.796;2023-08-12T00:13:55;100736.91;;;22.12;53.99
62800;BME280;48842;51.046;13.796;2023-08-12T00:16:20;100740.53;;;22.11;54.21
62800;BME280;48842;51.046;13.796;2023-08-12T00:18:46;100745.09;;;22.07;54.03
62800;BME280;48842;51.046;13.796;2023-08-12T00:21:11;100743.34;;;22.06;54.44
62800;BME280;48842;51.046;13.796;2023-08-12T00:23:39;100740.72;;;22.05;54.49
62800;BME280;48842;51.046;13.796;2023-08-12T00:26:09;100739.06;;;22.02;54.56
62800;BME280;48842;51.046;13.796;2023-08-12T00:28:34;100746.38;;;21.97;54.75
62800;BME280;48842;51.046;13.796;2023-08-12T00:31:00;100743.75;;;21.95;54.65
62800;BME280;48842;51.046;13.796;2023-08-12T00:33:25;100741.22;;;21.92;54.73
62800;BME280;48842;51.046;13.796;2023-08-12T00:35:50;100744.84;;;21.90;54.91
62800;BME280;48842;51.046;13.796;2023-08-12T00:38:15;100738.78;;;21.86;55.08
62800;BME280;48842;51.046;13.796;2023-08-12T00:40:41;100743.34;;;21.83;55.21
62800;BME280;48842;51.046;13.796;2023-08-12T00:43:06;100731.03;;;21.78;55.32
62800;BME280;48842;51.046;13.796;2023-08-12T00:45:31;100727.56;;;21.76;55.35
62800;BME280;48842;51.046;13.796;2023-08-12T00:47:57;100725.81;;;21.75;55.14
62800;BME280;48842;51.046;13.796;2023-08-12T00:50:23;100722.34;;;21.73;55.63
62800;BME280;48842;51.046;13.796;2023-08-12T00:52:49;100716.19;;;21.71;55.68
62800;BME280;48842;51.046;13.796;2023-08-12T00:55:15;100726.94;;;21.68;55.73
62800;BME280;48842;51.046;13.796;2023-08-12T00:57:42;100731.44;;;21.68;55.79
62800;BME280;48842;51.046;13.796;2023-08-12T01:00:08;100721.72;;;21.65;55.60
62800;BME280;48842;51.046;13.796;2023-08-12T01:02:33;100718.25;;;21.63;55.96
62800;BME280;48842;51.046;13.796;2023-08-12T01:04:59;100728.16;;;21.59;56.01
62800;BME280;48842;51.046;13.796;2023-08-12T01:07:24;100729.22;;;21.55;56.12
62800;BME280;48842;51.046;13.796;2023-08-12T01:09:49;100715.06;;;21.53;56.12
62800;BME280;48842;51.046;13.796;2023-08-12T01:14:47;100724.94;;;21.50;56.38
62800;BME280;48842;51.046;13.796;2023-08-12T01:17:15;100720.63;;;21.45;56.28
62800;BME280;48842;51.046;13.796;2023-08-12T01:19:42;100726.06;;;21.42;56.61
62800;BME280;48842;51.046;13.796;2023-08-12T01:22:10;100731.47;;;21.41;56.84
62800;BME280;48842;51.046;13.796;2023-08-12T01:24:37;100723.56;;;21.38;56.84
62800;BME280;48842;51.046;13.796;2023-08-12T01:27:04;100724.53;;;21.35;56.85
62800;BME280;48842;51.046;13.796;2023-08-12T01:29:30;100724.53;;;21.35;56.69
62800;BME280;48842;51.046;13.796;2023-08-12T01:32:02;100720.19;;;21.33;57.16
62800;BME280;48842;51.046;13.796;2023-08-12T01:34:46;100714.84;;;21.33;57.38
62800;BME280;48842;51.046;13.796;2023-08-12T01:37:18;100719.22;;;21.35;57.37
62800;BME280;48842;51.046;13.796;2023-08-12T01:39:47;100719.22;;;21.35;57.50
62800;BME280;48842;51.046;13.796;2023-08-12T01:42:14;100716.53;;;21.35;57.22
62800;BME280;48842;51.046;13.796;2023-08-12T01:44:41;100716.59;;;21.34;57.39
62800;BME280;48842;51.046;13.796;2023-08-12T01:47:08;100714.03;;;21.31;57.57
62800;BME280;48842;51.046;13.796;2023-08-12T01:49:34;100713.25;;;21.27;57.66
62800;BME280;48842;51.046;13.796;2023-08-12T01:51:59;100703.56;;;21.24;57.90
62800;BME280;48842;51.046;13.796;2023-08-12T01:54:24;100705.38;;;21.24;57.95
62800;BME280;48842;51.046;13.796;2023-08-12T01:56:49;100701.84;;;21.23;58.20
62800;BME280;48842;51.046;13.796;2023-08-12T01:59:15;100700.06;;;21.24;57.94
62800;BME280;48842;51.046;13.796;2023-08-12T02:01:40;100701.84;;;21.23;58.27
62800;BME280;48842;51.046;13.796;2023-08-12T02:04:05;100697.38;;;21.24;58.16
62800;BME280;48842;51.046;13.796;2023-08-12T02:06:31;100692.91;;;21.24;58.20
62800;BME280;48842;51.046;13.796;2023-08-12T02:08:56;100700.00;;;21.25;58.03
62800;BME280;48842;51.046;13.796;2023-08-12T02:11:21;100692.97;;;21.23;58.06
62800;BME280;48842;51.046;13.796;2023-08-12T02:13:46;100682.41;;;21.20;58.32
62800;BME280;48842;51.046;13.796;2023-08-12T02:16:12;100678.94;;;21.18;58.37
62800;BME280;48842;51.046;13.796;2023-08-12T02:18:37;100687.88;;;21.17;58.40
62800;BME280;48842;51.046;13.796;2023-08-12T02:21:02;100682.63;;;21.14;58.26
62800;BME280;48842;51.046;13.796;2023-08-12T02:23:27;100684.50;;;21.12;58.43
62800;BME280;48842;51.046;13.796;2023-08-12T02:25:53;100675.63;;;21.11;58.14
62800;BME280;48842;51.046;13.796;2023-08-12T02:28:19;100675.66;;;21.09;58.29
62800;BME280;48842;51.046;13.796;2023-08-12T02:30:46;100672.19;;;21.07;58.36
62800;BME280;48842;51.046;13.796;2023-08-12T02:33:11;100667.78;;;21.06;58.29
62800;BME280;48842;51.046;13.796;2023-08-12T02:35:37;100659.78;;;21.06;58.41
62800;BME280;48842;51.046;13.796;2023-08-12T02:38:03;100656.31;;;21.04;58.35
62800;BME280;48842;51.046;13.796;2023-08-12T02:40:28;100651.00;;;21.04;58.57
62800;BME280;48842;51.046;13.796;2023-08-12T02:42:53;100661.72;;;21.03;58.29
62800;BME280;48842;51.046;13.796;2023-08-12T02:45:19;100657.28;;;21.02;58.21
62800;BME280;48842;51.046;13.796;2023-08-12T02:47:44;100656.44;;;21.01;58.26
62800;BME280;48842;51.046;13.796;2023-08-12T02:50:09;100652.06;;;20.99;58.13
62800;BME280;48842;51.046;13.796;2023-08-12T02:52:35;100649.41;;;20.99;58.11
62800;BME280;48842;51.046;13.796;2023-08-12T02:55:00;100651.25;;;20.97;58.15
62800;BME280;48842;51.046;13.796;2023-08-12T02:57:26;100653.97;;;20.95;58.43
62800;BME280;48842;51.046;13.796;2023-08-12T02:59:51;100649.56;;;20.94;58.33
62800;BME280;48842;51.046;13.796;2023-08-12T03:02:16;100645.22;;;20.91;58.39
62800;BME280;48842;51.046;13.796;2023-08-12T03:04:41;100646.19;;;20.89;58.48
62800;BME280;48842;51.046;13.796;2023-08-12T03:07:07;100648.03;;;20.87;58.76
62800;BME280;48842;51.046;13.796;2023-08-12T03:09:32;100649.88;;;20.85;58.63
62800;BME280;48842;51.046;13.796;2023-08-12T03:11:57;100650.88;;;20.82;58.93
62800;BME280;48842;51.046;13.796;2023-08-12T03:14:28;100652.75;;;20.79;59.07
62800;BME280;48842;51.046;13.796;2023-08-12T03:16:53;100652.78;;;20.77;58.89
62800;BME280;48842;51.046;13.796;2023-08-12T03:19:18;100649.31;;;20.75;59.14
62800;BME280;48842;51.046;13.796;2023-08-12T03:21:44;100662.69;;;20.73;59.29
62800;BME280;48842;51.046;13.796;2023-08-12T03:24:09;100656.47;;;20.73;59.29
62800;BME280;48842;51.046;13.796;2023-08-12T03:26:34;100657.44;;;20.70;59.47
62800;BME280;48842;51.046;13.796;2023-08-12T03:28:59;100660.16;;;20.69;59.26
62800;BME280;48842;51.046;13.796;2023-08-12T03:31:24;100658.38;;;20.69;59.25
62800;BME280;48842;51.046;13.796;2023-08-12T03:33:50;100657.56;;;20.67;59.46
62800;BME280;48842;51.046;13.796;2023-08-12T03:36:15;100659.34;;;20.67;59.71
62800;BME280;48842;51.046;13.796;2023-08-12T03:38:40;100647.84;;;20.66;59.83
62800;BME280;48842;51.046;13.796;2023-08-12T03:41:06;100650.53;;;20.63;59.60
62800;BME280;48842;51.046;13.796;2023-08-12T03:43:32;100649.75;;;20.61;59.65
62800;BME280;48842;51.046;13.796;2023-08-12T03:45:58;100643.59;;;20.59;59.92
62800;BME280;48842;51.046;13.796;2023-08-12T03:48:24;100645.38;;;20.58;59.92
62800;BME280;48842;51.046;13.796;2023-08-12T03:50:49;100633.00;;;20.57;59.62
62800;BME280;48842;51.046;13.796;2023-08-12T03:53:14;100640.09;;;20.57;60.03
62800;BME280;48842;51.046;13.796;2023-08-12T03:55:41;100640.09;;;20.57;59.62
62800;BME280;48842;51.046;13.796;2023-08-12T03:58:06;100639.25;;;20.56;59.71
62800;BME280;48842;51.046;13.796;2023-08-12T04:00:31;100628.59;;;20.56;59.54
62800;BME280;48842;51.046;13.796;2023-08-12T04:02:56;100642.81;;;20.55;59.37
62800;BME280;48842;51.046;13.796;2023-08-12T04:05:22;100634.78;;;20.57;59.52
62800;BME280;48842;51.046;13.796;2023-08-12T04:07:47;100637.44;;;20.57;59.38
62800;BME280;48842;51.046;13.796;2023-08-12T04:10:12;100636.53;;;20.58;59.66
62800;BME280;48842;51.046;13.796;2023-08-12T04:12:41;100631.16;;;20.60;59.39
62800;BME280;48842;51.046;13.796;2023-08-12T04:15:07;100631.97;;;20.62;59.43
62800;BME280;48842;51.046;13.796;2023-08-12T04:17:32;100633.72;;;20.63;59.35
62800;BME280;48842;51.046;13.796;2023-08-12T04:19:58;100631.00;;;20.64;59.06
62800;BME280;48842;51.046;13.796;2023-08-12T04:22:23;100627.41;;;20.65;58.98
62800;BME280;48842;51.046;13.796;2023-08-12T04:24:49;100624.75;;;20.67;59.35
62800;BME280;48842;51.046;13.796;2023-08-12T04:27:14;100631.88;;;20.66;59.28
62800;BME280;48842;51.046;13.796;2023-08-12T04:29:41;100624.75;;;20.67;59.40
62800;BME280;48842;51.046;13.796;2023-08-12T04:32:06;100630.00;;;20.68;59.39
62800;BME280;48842;51.046;13.796;2023-08-12T04:34:32;100638.84;;;20.69;59.48
62800;BME280;48842;51.046;13.796;2023-08-12T04:36:57;100632.63;;;20.70;59.16
62800;BME280;48842;51.046;13.796;2023-08-12T04:39:22;100622.78;;;20.72;59.45
62800;BME280;48842;51.046;13.796;2023-08-12T04:41:47;100628.03;;;20.75;59.06
62800;BME280;48842;51.046;13.796;2023-08-12T04:44:13;100639.44;;;20.79;59.02
62800;BME280;48842;51.046;13.796;2023-08-12T04:46:38;100633.13;;;20.81;58.82
62800;BME280;48842;51.046;13.796;2023-08-12T04:49:03;100638.31;;;20.86;58.85
62800;BME280;48842;51.046;13.796;2023-08-12T04:51:28;100628.38;;;20.91;59.15
62800;BME280;48842;51.046;13.796;2023-08-12T04:53:55;100625.56;;;20.96;58.94
62800;BME280;48842;51.046;13.796;2023-08-12T04:56:20;100620.91;;;21.01;59.06
62800;BME280;48842;51.046;13.796;2023-08-12T04:58:48;100621.81;;;21.01;59.05
62800;BME280;48842;51.046;13.796;2023-08-12T05:01:13;100621.69;;;21.04;59.11
62800;BME280;48842;51.046;13.796;2023-08-12T05:03:38;100620.75;;;21.05;59.01
62800;BME280;48842;51.046;13.796;2023-08-12T05:06:04;100620.69;;;21.07;59.22
62800;BME280;48842;51.046;13.796;2023-08-12T05:08:30;100619.72;;;21.09;59.26
62800;BME280;48842;51.046;13.796;2023-08-12T05:10:55;100607.28;;;21.10;59.04
62800;BME280;48842;51.046;13.796;2023-08-12T05:13:20;100612.50;;;21.13;59.20
62800;BME280;48842;51.046;13.796;2023-08-12T05:15:46;100618.59;;;21.17;59.15
62800;BME280;48842;51.046;13.796;2023-08-12T05:18:15;100621.19;;;21.18;59.41
62800;BME280;48842;51.046;13.796;2023-08-12T05:20:41;100618.34;;;21.23;59.05
62800;BME280;48842;51.046;13.796;2023-08-12T05:23:09;100616.53;;;21.25;59.09
62800;BME280;48842;51.046;13.796;2023-08-12T05:25:34;100616.41;;;21.28;59.23
62800;BME280;48842;51.046;13.796;2023-08-12T05:28:00;100614.53;;;21.30;59.15
62800;BME280;48842;51.046;13.796;2023-08-12T05:30:25;100619.69;;;21.35;59.27
62800;BME280;48842;51.046;13.796;2023-08-12T05:32:50;100616.84;;;21.41;59.43
62800;BME280;48842;51.046;13.796;2023-08-12T05:35:15;100609.59;;;21.44;58.95
62800;BME280;48842;51.046;13.796;2023-08-12T05:37:41;100612.94;;;21.51;58.46
62800;BME280;48842;51.046;13.796;2023-08-12T05:40:08;100612.66;;;21.59;58.64
62800;BME280;48842;51.046;13.796;2023-08-12T05:42:34;100611.50;;;21.66;58.18
62800;BME280;48842;51.046;13.796;2023-08-12T05:45:00;100606.75;;;21.74;57.92
62800;BME280;48842;51.046;13.796;2023-08-12T05:47:25;100603.72;;;21.84;57.69
62800;BME280;48842;51.046;13.796;2023-08-12T05:49:50;100608.69;;;21.93;57.31
62800;BME280;48842;51.046;13.796;2023-08-12T05:52:15;100612.78;;;22.02;57.37
62800;BME280;48842;51.046;13.796;2023-08-12T05:54:41;100601.84;;;22.09;56.96
62800;BME280;48842;51.046;13.796;2023-08-12T05:57:06;100605.03;;;22.18;56.77
62800;BME280;48842;51.046;13.796;2023-08-12T05:59:31;100610.81;;;22.29;56.21
62800;BME280;48842;51.046;13.796;2023-08-12T06:01:57;100601.53;;;22.39;55.71
62800;BME280;48842;51.046;13.796;2023-08-12T06:04:22;100606.50;;;22.48;54.91
62800;BME280;48842;51.046;13.796;2023-08-12T06:06:47;100595.31;;;22.61;54.83
62800;BME280;48842;51.046;13.796;2023-08-12T06:09:13;100590.47;;;22.71;54.38
62800;BME280;48842;51.046;13.796;2023-08-12T06:11:38;100590.06;;;22.80;54.01
62800;BME280;48842;51.046;13.796;2023-08-12T06:14:03;100598.47;;;22.91;53.71
62800;BME280;48842;51.046;13.796;2023-08-12T06:16:28;100593.66;;;22.99;53.13
62800;BME280;48842;51.046;13.796;2023-08-12T06:18:54;100584.34;;;23.08;52.91
62800;BME280;48842;51.046;13.796;2023-08-12T06:21:19;100583.03;;;23.18;52.57
62800;BME280;48842;51.046;13.796;2023-08-12T06:23:44;100583.44;;;23.30;52.34
62800;BME280;48842;51.046;13.796;2023-08-12T06:26:10;100583.06;;;23.38;51.96
62800;BME280;48842;51.046;13.796;2023-08-12T06:28:35;100578.25;;;23.46;51.95
62800;BME280;48842;51.046;13.796;2023-08-12T06:31:00;100585.91;;;23.53;51.49
62800;BME280;48842;51.046;13.796;2023-08-12T06:33:26;100582.09;;;23.59;51.42
62800;BME280;48842;51.046;13.796;2023-08-12T06:35:51;100585.44;;;23.64;51.44
62800;BME280;48842;51.046;13.796;2023-08-12T06:38:16;100581.63;;;23.70;51.28
62800;BME280;48842;51.046;13.796;2023-08-12T06:40:42;100573.22;;;23.78;51.03
62800;BME280;48842;51.046;13.796;2023-08-12T06:43:07;100574.63;;;23.86;51.00
62800;BME280;48842;51.046;13.796;2023-08-12T06:45:34;100573.47;;;23.92;50.82
62800;BME280;48842;51.046;13.796;2023-08-12T06:47:59;100571.34;;;23.99;50.52
62800;BME280;48842;51.046;13.796;2023-08-12T06:50:24;100577.44;;;24.02;50.46
62800;BME280;48842;51.046;13.796;2023-08-12T06:52:56;100577.19;;;24.07;50.20
62800;BME280;48842;51.046;13.796;2023-08-12T06:55:22;100565.56;;;24.08;50.17
62800;BME280;48842;51.046;13.796;2023-08-12T06:57:47;100572.63;;;24.09;50.09
62800;BME280;48842;51.046;13.796;2023-08-12T07:00:12;100572.63;;;24.09;50.14
62800;BME280;48842;51.046;13.796;2023-08-12T07:02:38;100576.19;;;24.10;50.08
62800;BME280;48842;51.046;13.796;2023-08-12T07:05:05;100575.09;;;24.14;50.02
62800;BME280;48842;51.046;13.796;2023-08-12T07:07:30;100569.59;;;24.17;49.80
62800;BME280;48842;51.046;13.796;2023-08-12T07:09:56;100574.72;;;24.21;49.84
62800;BME280;48842;51.046;13.796;2023-08-12T07:12:21;100569.97;;;24.27;49.69
62800;BME280;48842;51.046;13.796;2023-08-12T07:14:46;100571.66;;;24.29;49.72
62800;BME280;48842;51.046;13.796;2023-08-12T07:17:11;100569.69;;;24.33;49.85
62800;BME280;48842;51.046;13.796;2023-08-12T07:19:37;100572.22;;;24.36;50.04
62800;BME280;48842;51.046;13.796;2023-08-12T07:22:02;100571.19;;;24.38;49.83
62800;BME280;48842;51.046;13.796;2023-08-12T07:24:27;100573.84;;;24.38;49.77
62800;BME280;48842;51.046;13.796;2023-08-12T07:26:53;100571.13;;;24.40;49.91
62800;BME280;48842;51.046;13.796;2023-08-12T07:29:18;100568.28;;;24.43;50.10
62800;BME280;48842;51.046;13.796;2023-08-12T07:31:43;100570.66;;;24.49;50.23
62800;BME280;48842;51.046;13.796;2023-08-12T07:34:09;100567.59;;;24.57;50.08
62800;BME280;48842;51.046;13.796;2023-08-12T07:36:38;100564.63;;;24.63;49.77
62800;BME280;48842;51.046;13.796;2023-08-12T07:39:03;100566.13;;;24.69;49.85
62800;BME280;48842;51.046;13.796;2023-08-12T07:41:28;100556.81;;;24.76;49.76
62800;BME280;48842;51.046;13.796;2023-08-12T07:43:54;100566.19;;;24.85;49.95
62800;BME280;48842;51.046;13.796;2023-08-12T07:46:19;100555.06;;;24.92;49.81
62800;BME280;48842;51.046;13.796;2023-08-12T07:48:44;100560.72;;;25.04;49.65
62800;BME280;48842;51.046;13.796;2023-08-12T07:51:09;100551.25;;;25.14;49.77
62800;BME280;48842;51.046;13.796;2023-08-12T07:53:35;100551.63;;;25.24;50.13
62800;BME280;48842;51.046;13.796;2023-08-12T07:56:00;100549.34;;;25.34;49.68
62800;BME280;48842;51.046;13.796;2023-08-12T07:58:26;100554.19;;;25.43;49.27
62800;BME280;48842;51.046;13.796;2023-08-12T08:00:54;100548.50;;;25.49;49.16
62800;BME280;48842;51.046;13.796;2023-08-12T08:03:19;100554.31;;;25.57;48.90
62800;BME280;48842;51.046;13.796;2023-08-12T08:05:45;100548.69;;;25.62;48.78
62800;BME280;48842;51.046;13.796;2023-08-12T08:08:12;100547.47;;;25.68;48.73
62800;BME280;48842;51.046;13.796;2023-08-12T08:10:37;100540.91;;;25.73;48.74
62800;BME280;48842;51.046;13.796;2023-08-12T08:13:03;100538.72;;;25.80;48.79
62800;BME280;48842;51.046;13.796;2023-08-12T08:15:28;100534.91;;;25.84;49.11
62800;BME280;48842;51.046;13.796;2023-08-12T08:17:53;100534.66;;;25.89;49.07
62800;BME280;48842;51.046;13.796;2023-08-12T08:20:19;100533.53;;;25.93;48.92
62800;BME280;48842;51.046;13.796;2023-08-12T08:22:44;100533.25;;;25.98;48.69
62800;BME280;48842;51.046;13.796;2023-08-12T08:25:09;100528.53;;;26.03;48.61
62800;BME280;48842;51.046;13.796;2023-08-12T08:27:34;100520.19;;;26.07;48.46
62800;BME280;48842;51.046;13.796;2023-08-12T08:30:00;100513.63;;;26.13;48.32
62800;BME280;48842;51.046;13.796;2023-08-12T08:32:25;100520.63;;;26.16;48.34
62800;BME280;48842;51.046;13.796;2023-08-12T08:34:50;100519.31;;;26.23;48.31
62800;BME280;48842;51.046;13.796;2023-08-12T08:37:16;100527.88;;;26.29;47.89
62800;BME280;48842;51.046;13.796;2023-08-12T08:39:41;100530.22;;;26.36;47.53
62800;BME280;48842;51.046;13.796;2023-08-12T08:42:08;100526.28;;;26.41;47.80
62800;BME280;48842;51.046;13.796;2023-08-12T08:44:36;100518.91;;;26.45;47.43
62800;BME280;48842;51.046;13.796;2023-08-12T08:47:06;100516.78;;;26.50;47.30
62800;BME280;48842;51.046;13.796;2023-08-12T08:49:32;100525.28;;;26.58;47.50
62800;BME280;48842;51.046;13.796;2023-08-12T08:51:59;100524.13;;;26.62;47.81
62800;BME280;48842;51.046;13.796;2023-08-12T08:54:25;100521.94;;;26.69;47.60
62800;BME280;48842;51.046;13.796;2023-08-12T08:56:51;100515.53;;;26.72;47.25
62800;BME280;48842;51.046;13.796;2023-08-12T08:59:16;100519.00;;;26.74;47.21
62800;BME280;48842;51.046;13.796;2023-08-12T09:01:43;100525.06;;;26.77;47.69
62800;BME280;48842;51.046;13.796;2023-08-12T09:04:09;100519.28;;;26.83;48.08
62800;BME280;48842;51.046;13.796;2023-08-12T09:06:36;100520.66;;;26.91;47.32
62800;BME280;48842;51.046;13.796;2023-08-12T09:09:05;100512.13;;;26.98;47.05
62800;BME280;48842;51.046;13.796;2023-08-12T09:11:33;100511.63;;;27.06;47.00
62800;BME280;48842;51.046;13.796;2023-08-12T09:13:58;100502.22;;;27.13;46.50
62800;BME280;48842;51.046;13.796;2023-08-12T09:16:24;100516.91;;;27.22;46.42
62800;BME280;48842;51.046;13.796;2023-08-12T09:18:54;100508.47;;;27.28;46.32
62800;BME280;48842;51.046;13.796;2023-08-12T09:21:20;100501.66;;;27.37;46.35
62800;BME280;48842;51.046;13.796;2023-08-12T09:23:45;100495.78;;;27.45;46.18
62800;BME280;48842;51.046;13.796;2023-08-12T09:26:16;100494.41;;;27.52;46.03
62800;BME280;48842;51.046;13.796;2023-08-12T09:28:42;100486.50;;;27.63;46.18
62800;BME280;48842;51.046;13.796;2023-08-12T09:31:08;100484.84;;;27.75;45.57
62800;BME280;48842;51.046;13.796;2023-08-12T09:33:46;100486.31;;;27.94;44.84
62800;BME280;48842;51.046;13.796;2023-08-12T09:36:11;100478.09;;;28.10;44.28
62800;BME280;48842;51.046;13.796;2023-08-12T09:38:36;100477.06;;;28.25;43.89
62800;BME280;48842;51.046;13.796;2023-08-12T09:41:02;100471.56;;;28.39;43.35
62800;BME280;48842;51.046;13.796;2023-08-12T09:43:28;100464.25;;;28.54;43.07
62800;BME280;48842;51.046;13.796;2023-08-12T09:45:57;100466.78;;;28.70;42.67
62800;BME280;48842;51.046;13.796;2023-08-12T09:48:26;100459.34;;;28.87;42.47
62800;BME280;48842;51.046;13.796;2023-08-12T09:50:52;100458.47;;;28.99;42.39
62800;BME280;48842;51.046;13.796;2023-08-12T09:53:18;100453.91;;;29.13;42.25
62800;BME280;48842;51.046;13.796;2023-08-12T09:55:47;100460.28;;;29.24;41.18
62800;BME280;48842;51.046;13.796;2023-08-12T09:58:14;100458.41;;;29.38;40.72
62800;BME280;48842;51.046;13.796;2023-08-12T10:00:42;100456.53;;;29.51;40.63
62800;BME280;48842;51.046;13.796;2023-08-12T10:03:08;100459.16;;;29.64;40.33
62800;BME280;48842;51.046;13.796;2023-08-12T10:05:36;100454.06;;;29.72;39.33
62800;BME280;48842;51.046;13.796;2023-08-12T10:08:03;100461.69;;;29.78;38.36
62800;BME280;48842;51.046;13.796;2023-08-12T10:10:30;100458.75;;;29.82;38.30
62800;BME280;48842;51.046;13.796;2023-08-12T10:12:57;100444.31;;;29.83;37.67
62800;BME280;48842;51.046;13.796;2023-08-12T10:15:23;100447.97;;;29.82;37.08
62800;BME280;48842;51.046;13.796;2023-08-12T10:17:51;100440.84;;;29.81;36.76
62800;BME280;48842;51.046;13.796;2023-08-12T10:20:21;100437.16;;;29.82;36.86
62800;BME280;48842;51.046;13.796;2023-08-12T10:22:51;100440.84;;;29.81;36.96
62800;BME280;48842;51.046;13.796;2023-08-12T10:25:18;100439.97;;;29.80;36.77
62800;BME280;48842;51.046;13.796;2023-08-12T10:27:46;100440.97;;;29.79;36.55
62800;BME280;48842;51.046;13.796;2023-08-12T10:30:13;100443.03;;;29.75;36.21
62800;BME280;48842;51.046;13.796;2023-08-12T10:32:41;100441.41;;;29.73;36.54
62800;BME280;48842;51.046;13.796;2023-08-12T10:35:08;100445.97;;;29.72;36.33
62800;BME280;48842;51.046;13.796;2023-08-12T10:37:34;100445.13;;;29.72;36.06
62800;BME280;48842;51.046;13.796;2023-08-12T10:40:03;100443.50;;;29.69;36.11
62800;BME280;48842;51.046;13.796;2023-08-12T10:42:42;100440.06;;;29.67;36.43
62800;BME280;48842;51.046;13.796;2023-08-12T10:45:12;100438.31;;;29.66;36.76
62800;BME280;48842;51.046;13.796;2023-08-12T10:47:42;100438.56;;;29.63;36.96
62800;BME280;48842;51.046;13.796;2023-08-12T10:50:22;100437.91;;;29.59;36.95
62800;BME280;48842;51.046;13.796;2023-08-12T10:52:53;100444.19;;;29.60;36.97
62800;BME280;48842;51.046;13.796;2023-08-12T10:55:23;100433.41;;;29.60;37.33
62800;BME280;48842;51.046;13.796;2023-08-12T10:57:50;100428.59;;;29.64;37.50
62800;BME280;48842;51.046;13.796;2023-08-12T11:00:22;100423.84;;;29.67;37.19
62800;BME280;48842;51.046;13.796;2023-08-12T11:02:50;100421.66;;;29.72;37.45
62800;BME280;48842;51.046;13.796;2023-08-12T11:05:16;100420.44;;;29.76;37.96
62800;BME280;48842;51.046;13.796;2023-08-12T11:07:49;100420.84;;;29.83;37.86
62800;BME280;48842;51.046;13.796;2023-08-12T11:10:25;100417.59;;;29.91;38.04
62800;BME280;48842;51.046;13.796;2023-08-12T11:15:16;100417.16;;;30.08;38.74
62800;BME280;48842;51.046;13.796;2023-08-12T11:17:41;100418.19;;;30.19;38.20
62800;BME280;48842;51.046;13.796;2023-08-12T11:20:12;100412.88;;;30.28;38.19
62800;BME280;48842;51.046;13.796;2023-08-12T11:22:39;100413.28;;;30.35;38.14
62800;BME280;48842;51.046;13.796;2023-08-12T11:25:06;100421.69;;;30.43;38.26
62800;BME280;48842;51.046;13.796;2023-08-12T11:27:44;100416.66;;;30.50;37.26
62800;BME280;48842;51.046;13.796;2023-08-12T11:30:11;100409.66;;;30.59;37.34
62800;BME280;48842;51.046;13.796;2023-08-12T11:32:38;100416.06;;;30.69;37.75
62800;BME280;48842;51.046;13.796;2023-08-12T11:35:05;100412.63;;;30.78;37.70
62800;BME280;48842;51.046;13.796;2023-08-12T11:37:31;100402.91;;;30.87;37.49
62800;BME280;48842;51.046;13.796;2023-08-12T11:40:04;100404.13;;;30.94;36.89
62800;BME280;48842;51.046;13.796;2023-08-12T11:42:30;100404.75;;;30.98;36.50
62800;BME280;48842;51.046;13.796;2023-08-12T11:44:57;100395.00;;;30.95;36.85
62800;BME280;48842;51.046;13.796;2023-08-12T11:47:23;100395.78;;;30.86;36.73
62800;BME280;48842;51.046;13.796;2023-08-12T11:49:52;100399.22;;;30.77;37.09
62800;BME280;48842;51.046;13.796;2023-08-12T11:52:18;100394.66;;;30.66;36.78
62800;BME280;48842;51.046;13.796;2023-08-12T11:54:43;100391.72;;;30.58;36.85
62800;BME280;48842;51.046;13.796;2023-08-12T11:57:08;100393.91;;;30.53;37.11
62800;BME280;48842;51.046;13.796;2023-08-12T11:59:38;100390.25;;;30.54;36.97
62800;BME280;48842;51.046;13.796;2023-08-12T12:02:04;100389.63;;;30.61;36.81
62800;BME280;48842;51.046;13.796;2023-08-12T12:04:32;100381.28;;;30.76;36.57
62800;BME280;48842;51.046;13.796;2023-08-12T12:06:58;100384.44;;;30.92;35.60
62800;BME280;48842;51.046;13.796;2023-08-12T12:09:24;100388.03;;;31.04;35.06
62800;BME280;48842;51.046;13.796;2023-08-12T12:11:52;100392.97;;;31.10;35.07
62800;BME280;48842;51.046;13.796;2023-08-12T12:14:18;100387.03;;;31.17;35.08
62800;BME280;48842;51.046;13.796;2023-08-12T12:16:46;100384.53;;;31.25;35.04
62800;BME280;48842;51.046;13.796;2023-08-12T12:19:21;100389.22;;;31.34;34.82
62800;BME280;48842;51.046;13.796;2023-08-12T12:21:51;100394.47;;;31.47;34.84
62800;BME280;48842;51.046;13.796;2023-08-12T12:24:18;100388.88;;;31.60;34.85
62800;BME280;48842;51.046;13.796;2023-08-12T12:26:45;100394.88;;;31.75;34.25
62800;BME280;48842;51.046;13.796;2023-08-12T12:29:11;100386.53;;;31.88;33.98
62800;BME280;48842;51.046;13.796;2023-08-12T12:31:40;100394.09;;;32.05;33.97
62800;BME280;48842;51.046;13.796;2023-08-12T12:34:10;100381.28;;;32.07;33.63
62800;BME280;48842;51.046;13.796;2023-08-12T12:36:39;100376.63;;;31.98;33.58
62800;BME280;48842;51.046;13.796;2023-08-12T12:39:05;100375.72;;;31.88;33.87
62800;BME280;48842;51.046;13.796;2023-08-12T12:41:33;100382.63;;;31.80;34.26